createdAt,value
2022-11-22T00:00:44.292Z,29.83
2022-11-22T00:03:11.798Z,27.53
2022-11-22T00:05:39.175Z,33.33
2022-11-22T00:08:06.842Z,28.97
2022-11-22T00:10:34.371Z,32.17
2022-11-22T00:13:02.096Z,31.37
2022-11-22T00:15:29.891Z,30.73
2022-11-22T00:17:57.173Z,25.57
2022-11-22T00:20:24.277Z,28.40
2022-11-22T00:22:51.432Z,24.73
2022-11-22T00:25:18.531Z,28.87
2022-11-22T00:27:45.588Z,26.83
2022-11-22T00:30:12.803Z,30.53
2022-11-22T00:32:39.834Z,28.90
2022-11-22T00:35:07.756Z,27.63
2022-11-22T00:37:34.884Z,23.03
2022-11-22T00:40:02.565Z,31.20
2022-11-22T00:42:30.373Z,25.07
2022-11-22T00:44:57.688Z,28.33
2022-11-22T00:47:24.796Z,21.87
2022-11-22T00:49:51.822Z,28.67
2022-11-22T00:52:19.033Z,25.00
2022-11-22T00:54:50.041Z,30.53
2022-11-22T00:57:18.592Z,22.03
2022-11-22T00:59:45.710Z,23.67
2022-11-22T01:02:12.820Z,16.27
2022-11-22T01:04:39.901Z,21.40
2022-11-22T01:07:07.091Z,18.53
2022-11-22T01:09:34.259Z,19.77
2022-11-22T01:12:01.454Z,21.23
2022-11-22T01:14:28.650Z,21.90
2022-11-22T01:16:55.692Z,24.77
2022-11-22T01:19:22.759Z,38.80
2022-11-22T01:21:49.786Z,20.77
2022-11-22T01:24:16.856Z,22.50
2022-11-22T01:26:44.089Z,20.73
2022-11-22T01:29:11.140Z,24.67
2022-11-22T01:31:38.176Z,21.17
2022-11-22T01:34:06.452Z,23.37
2022-11-22T01:36:33.497Z,20.43
2022-11-22T01:39:00.594Z,26.83
2022-11-22T01:41:27.744Z,22.80
2022-11-22T01:43:54.818Z,25.90
2022-11-22T01:46:38.196Z,23.83
2022-11-22T01:49:23.179Z,27.90
2022-11-22T01:51:55.474Z,25.83
2022-11-22T01:54:27.945Z,25.10
2022-11-22T01:56:59.371Z,22.30
2022-11-22T01:59:30.936Z,29.50
2022-11-22T02:01:59.243Z,26.07
2022-11-22T02:04:28.315Z,25.70
2022-11-22T02:07:02.631Z,22.40
2022-11-22T02:09:31.147Z,25.30
2022-11-22T02:12:03.826Z,30.90
2022-11-22T02:14:31.490Z,24.20
2022-11-22T02:16:58.570Z,27.23
2022-11-22T02:19:43.989Z,28.93
2022-11-22T02:22:42.081Z,43.97
2022-11-22T02:25:36.991Z,26.10
2022-11-22T02:28:05.107Z,28.40
2022-11-22T02:30:32.168Z,23.63
2022-11-22T02:32:59.233Z,31.50
2022-11-22T02:35:28.973Z,27.17
2022-11-22T02:38:06.268Z,30.57
2022-11-22T02:40:52.255Z,31.20
2022-11-22T02:43:35.767Z,32.22
2022-11-22T02:46:21.410Z,28.00
2022-11-22T02:48:49.218Z,31.73
2022-11-22T02:51:19.831Z,33.50
2022-11-22T02:53:49.628Z,35.47
2022-11-22T02:56:17.433Z,28.20
2022-11-22T02:58:45.520Z,28.90
2022-11-22T03:01:13.828Z,38.30
2022-11-22T03:03:41.040Z,40.07
2022-11-22T03:06:08.159Z,34.23
2022-11-22T03:08:35.251Z,34.13
2022-11-22T03:11:02.292Z,36.53
2022-11-22T03:13:29.392Z,36.77
2022-11-22T03:15:56.430Z,36.30
2022-11-22T03:18:23.848Z,39.70
2022-11-22T03:20:51.222Z,35.00
2022-11-22T03:23:18.298Z,36.13
2022-11-22T03:25:45.380Z,33.40
2022-11-22T03:28:12.457Z,32.13
2022-11-22T03:30:41.843Z,41.00
2022-11-22T03:33:09.119Z,37.83
2022-11-22T03:35:36.352Z,36.13
2022-11-22T03:38:04.013Z,38.27
2022-11-22T03:40:31.235Z,36.33
2022-11-22T03:43:02.487Z,35.33
2022-11-22T03:45:30.921Z,33.33
2022-11-22T03:47:58.270Z,33.90
2022-11-22T03:50:25.815Z,41.57
2022-11-22T03:52:52.936Z,33.80
2022-11-22T03:55:20.068Z,34.43
2022-11-22T03:57:47.083Z,32.90
2022-11-22T04:00:15.361Z,40.70
2022-11-22T04:02:42.413Z,32.80
2022-11-22T04:05:09.663Z,38.03
2022-11-22T04:07:36.945Z,34.17
2022-11-22T04:10:06.059Z,38.07
2022-11-22T04:12:33.244Z,36.85
2022-11-22T04:15:06.638Z,35.33
2022-11-22T04:17:45.556Z,33.77
2022-11-22T04:20:46.472Z,31.70
2022-11-22T04:23:22.156Z,33.03
2022-11-22T04:25:55.495Z,33.45
2022-11-22T04:29:08.295Z,32.80
2022-11-22T04:31:31.307Z,32.00
2022-11-22T04:33:58.338Z,34.70
2022-11-22T04:36:25.341Z,35.40
2022-11-22T04:38:52.431Z,32.27
2022-11-22T04:41:19.472Z,31.60
2022-11-22T04:44:04.814Z,36.07
2022-11-22T04:46:31.968Z,30.45
2022-11-22T04:48:58.989Z,32.90
2022-11-22T04:51:44.983Z,32.47
2022-11-22T04:54:12.003Z,35.88
2022-11-22T04:56:39.109Z,30.67
2022-11-22T04:59:06.260Z,27.05
2022-11-22T05:01:33.476Z,31.83
2022-11-22T05:04:00.667Z,30.88
2022-11-22T05:06:27.758Z,30.35
2022-11-22T05:08:55.625Z,31.23
2022-11-22T05:11:22.742Z,29.33
2022-11-22T05:13:50.221Z,33.22
2022-11-22T05:16:17.265Z,32.20
2022-11-22T05:18:59.396Z,27.30
2022-11-22T05:23:56.078Z,35.30
2022-11-22T05:26:30.258Z,30.70
2022-11-22T05:29:00.490Z,31.98
2022-11-22T05:31:27.991Z,32.55
2022-11-22T05:33:57.151Z,29.80
2022-11-22T05:36:25.052Z,30.35
2022-11-22T05:38:52.319Z,25.83
2022-11-22T05:41:19.778Z,28.08
2022-11-22T05:43:46.976Z,27.52
2022-11-22T05:46:24.778Z,30.67
2022-11-22T05:48:54.809Z,30.73
2022-11-22T05:51:30.677Z,28.15
2022-11-22T05:54:01.054Z,32.22
2022-11-22T05:56:28.157Z,32.38
2022-11-22T05:58:55.580Z,27.73
2022-11-22T06:01:24.625Z,34.45
2022-11-22T06:03:52.353Z,28.10
2022-11-22T06:06:19.830Z,27.58
2022-11-22T06:08:48.664Z,31.30
2022-11-22T06:11:22.969Z,33.90
2022-11-22T06:13:54.022Z,29.65
2022-11-22T06:16:21.842Z,28.25
2022-11-22T06:18:49.828Z,29.20
2022-11-22T06:21:20.441Z,29.52
2022-11-22T06:23:47.471Z,34.25
2022-11-22T06:26:18.369Z,33.05
2022-11-22T06:28:47.132Z,31.92
2022-11-22T06:31:21.184Z,30.50
2022-11-22T06:33:48.539Z,32.33
2022-11-22T06:36:21.695Z,28.10
2022-11-22T06:38:49.686Z,31.27
2022-11-22T06:41:20.419Z,26.88
2022-11-22T06:43:49.921Z,27.38
2022-11-22T06:46:19.975Z,31.38
2022-11-22T06:48:47.412Z,33.08
2022-11-22T06:51:27.729Z,34.08
2022-11-22T06:53:56.162Z,30.70
2022-11-22T06:56:37.730Z,29.67
2022-11-22T06:59:06.223Z,24.92
2022-11-22T07:01:35.691Z,31.98
2022-11-22T07:04:04.320Z,28.75
2022-11-22T07:06:38.837Z,28.52
2022-11-22T07:09:10.510Z,33.45
2022-11-22T07:11:38.110Z,29.52
2022-11-22T07:14:08.682Z,29.23
2022-11-22T07:16:38.537Z,27.00
2022-11-22T07:19:07.087Z,29.05
2022-11-22T07:21:36.644Z,26.73
2022-11-22T07:24:06.701Z,30.63
2022-11-22T07:26:33.916Z,28.92
2022-11-22T07:29:01.084Z,26.50
2022-11-22T07:31:28.449Z,30.63
2022-11-22T07:33:57.740Z,30.80
2022-11-22T07:36:25.542Z,26.77
2022-11-22T07:38:52.761Z,31.05
2022-11-22T07:41:20.037Z,31.30
2022-11-22T07:43:47.589Z,27.88
2022-11-22T07:46:26.434Z,28.10
2022-11-22T07:48:53.674Z,32.45
2022-11-22T07:51:20.839Z,30.15
2022-11-22T07:53:48.198Z,34.35
2022-11-22T07:56:16.303Z,28.55
2022-11-22T07:58:46.303Z,33.83
2022-11-22T08:01:17.351Z,31.13
2022-11-22T08:03:47.639Z,31.13
2022-11-22T08:06:15.648Z,32.95
2022-11-22T08:08:43.109Z,30.70
2022-11-22T08:11:11.244Z,33.38
2022-11-22T08:13:38.884Z,34.80
2022-11-22T08:16:13.744Z,35.00
2022-11-22T08:18:46.121Z,32.17
2022-11-22T08:21:14.503Z,27.30
2022-11-22T08:23:43.508Z,36.30
2022-11-22T08:26:14.408Z,31.97
2022-11-22T08:28:42.999Z,36.92
2022-11-22T08:31:19.722Z,33.20
2022-11-22T08:33:47.953Z,30.83
2022-11-22T08:36:15.503Z,36.03
2022-11-22T08:38:42.686Z,35.10
2022-11-22T08:41:10.324Z,35.10
2022-11-22T08:43:38.007Z,31.77
2022-11-22T08:46:05.871Z,34.33
2022-11-22T08:48:35.921Z,35.43
2022-11-22T08:51:09.345Z,34.75
2022-11-22T08:53:43.033Z,32.92
2022-11-22T08:56:14.538Z,30.52
2022-11-22T08:58:42.049Z,39.53
2022-11-22T09:01:16.242Z,33.53
2022-11-22T09:03:45.113Z,39.50
2022-11-22T09:11:49.844Z,34.15
2022-11-22T09:14:16.924Z,31.98
2022-11-22T09:16:44.062Z,32.88
2022-11-22T09:19:11.125Z,35.40
2022-11-22T09:21:38.272Z,40.10
2022-11-22T09:24:05.965Z,35.35
2022-11-22T09:26:33.098Z,37.72
2022-11-22T09:29:00.192Z,34.97
2022-11-22T09:31:27.321Z,33.83
2022-11-22T09:33:54.390Z,36.72
2022-11-22T09:36:26.293Z,34.92
2022-11-22T09:38:54.713Z,39.08
2022-11-22T09:42:14.387Z,38.33
2022-11-22T09:45:24.657Z,32.33
2022-11-22T09:47:51.606Z,36.00
2022-11-22T09:51:06.504Z,32.08
2022-11-22T09:53:42.802Z,36.17
2022-11-22T09:56:16.816Z,36.72
2022-11-22T09:58:53.319Z,35.22
2022-11-22T10:01:45.907Z,31.58
2022-11-22T10:04:24.799Z,32.03
2022-11-22T10:07:10.928Z,37.38
2022-11-22T10:10:02.314Z,33.80
2022-11-22T10:12:52.973Z,33.85
2022-11-22T10:15:36.282Z,38.00
2022-11-22T10:18:48.635Z,28.67
2022-11-22T10:21:19.811Z,36.58
2022-11-22T10:23:48.201Z,35.88
2022-11-22T10:26:27.327Z,36.15
2022-11-22T10:29:31.468Z,34.92
2022-11-22T10:32:10.588Z,32.35
2022-11-22T10:35:18.586Z,34.28
2022-11-22T10:37:48.383Z,34.35
2022-11-22T10:40:52.309Z,32.63
2022-11-22T10:43:25.265Z,33.45
2022-11-22T10:46:28.184Z,35.00
2022-11-22T10:49:22.150Z,29.15
2022-11-22T10:52:18.018Z,30.45
2022-11-22T10:55:25.893Z,29.23
2022-11-22T10:58:35.278Z,29.55
2022-11-22T11:01:30.339Z,31.23
2022-11-22T11:04:03.524Z,33.47
2022-11-22T11:07:16.177Z,33.60
2022-11-22T11:10:23.904Z,25.83
2022-11-22T11:12:56.858Z,27.30
2022-11-22T11:15:29.208Z,29.58
2022-11-22T11:18:04.326Z,29.40
2022-11-22T11:20:38.812Z,26.25
2022-11-22T11:23:15.117Z,23.90
2022-11-22T11:25:48.365Z,24.95
2022-11-22T11:28:30.870Z,27.23
2022-11-22T11:31:09.531Z,25.23
2022-11-22T11:33:40.808Z,23.90
2022-11-22T11:36:23.541Z,24.45
2022-11-22T11:38:56.226Z,29.02
2022-11-22T11:41:30.601Z,24.85
2022-11-22T11:44:01.723Z,24.63
2022-11-22T11:46:36.621Z,29.55
2022-11-22T11:49:13.995Z,22.80
2022-11-22T11:52:03.924Z,22.38
2022-11-22T11:54:46.183Z,28.33
2022-11-22T11:57:31.408Z,23.50
2022-11-22T12:00:01.931Z,27.47
2022-11-22T12:02:43.086Z,21.20
2022-11-22T12:05:13.232Z,25.83
2022-11-22T12:07:44.852Z,27.23
2022-11-22T12:11:01.964Z,33.85
2022-11-22T12:14:18.381Z,32.25
2022-11-22T12:16:54.336Z,32.97
2022-11-22T12:20:02.286Z,30.90
2022-11-22T12:22:50.831Z,36.92
2022-11-22T12:25:38.466Z,32.55
2022-11-22T12:28:27.383Z,30.73
2022-11-22T12:31:10.625Z,35.30
2022-11-22T12:33:50.323Z,37.47
2022-11-22T12:36:50.836Z,36.35
2022-11-22T12:39:27.396Z,31.90
2022-11-22T12:42:02.446Z,37.95
2022-11-22T12:44:36.948Z,43.25
2022-11-22T12:47:16.038Z,32.65
2022-11-22T12:49:59.723Z,30.73
2022-11-22T12:52:41.718Z,32.00
2022-11-22T12:55:30.719Z,29.30
2022-11-22T12:58:23.665Z,29.50
2022-11-22T13:01:36.353Z,34.03
2022-11-22T13:04:10.086Z,31.23
2022-11-22T13:07:18.101Z,28.90
2022-11-22T13:10:06.989Z,28.10
2022-11-22T13:12:39.173Z,29.25
2022-11-22T13:15:06.985Z,28.52
2022-11-22T13:17:36.413Z,27.13
2022-11-22T13:20:19.968Z,31.27
2022-11-22T13:23:04.971Z,29.25
2022-11-22T13:26:17.837Z,25.10
2022-11-22T13:28:46.800Z,23.80
2022-11-22T13:31:17.002Z,27.77
2022-11-22T13:34:01.457Z,26.77
2022-11-22T13:36:31.572Z,25.10
2022-11-22T13:39:16.101Z,27.55
2022-11-22T13:41:58.063Z,25.95
2022-11-22T13:44:32.315Z,31.08
2022-11-22T13:47:12.579Z,28.08
2022-11-22T13:49:48.221Z,29.42
2022-11-22T13:52:16.000Z,29.55
2022-11-22T13:54:56.318Z,29.58
2022-11-22T13:57:39.394Z,29.25
2022-11-22T14:00:12.820Z,25.73
2022-11-22T14:02:55.337Z,31.75
2022-11-22T14:05:32.698Z,34.60
2022-11-22T14:08:04.651Z,28.88
2022-11-22T14:10:52.892Z,26.73
2022-11-22T14:13:48.377Z,25.38
2022-11-22T14:16:31.951Z,24.67
2022-11-22T14:19:48.043Z,24.75
2022-11-22T14:22:50.928Z,25.63
2022-11-22T14:25:58.573Z,24.45
2022-11-22T14:28:37.396Z,22.58
2022-11-22T14:31:35.734Z,22.73
2022-11-22T14:34:22.961Z,22.83
2022-11-22T14:37:14.608Z,24.77
2022-11-22T14:39:44.886Z,25.67
2022-11-22T14:42:47.056Z,26.98
2022-11-22T14:45:21.542Z,25.90
2022-11-22T14:47:53.219Z,19.88
2022-11-22T14:50:38.434Z,23.77
2022-11-22T14:53:29.948Z,22.00
2022-11-22T14:56:06.774Z,24.48
2022-11-22T14:58:41.088Z,23.80
2022-11-22T15:01:45.352Z,20.15
2022-11-22T15:09:12.789Z,19.67
2022-11-22T15:09:20.793Z,26.38
2022-11-22T15:11:11.688Z,25.17
2022-11-22T15:14:36.431Z,21.75
2022-11-22T15:59:45.150Z,28.27
2022-11-22T16:02:22.972Z,26.45
2022-11-22T16:06:07.264Z,29.40
2022-11-22T16:07:55.468Z,29.23
2022-11-22T16:10:23.619Z,29.85
2022-11-22T16:12:52.719Z,24.77
2022-11-22T16:15:36.564Z,32.55
2022-11-22T16:18:07.549Z,30.73
2022-11-22T16:21:02.085Z,30.08
2022-11-22T16:23:33.927Z,27.33
2022-11-22T16:26:26.015Z,33.88
2022-11-22T16:28:56.028Z,32.58
2022-11-22T16:31:30.415Z,31.63
2022-11-22T16:33:58.747Z,30.48
2022-11-22T16:36:30.572Z,30.40
2022-11-22T16:38:58.344Z,30.65
2022-11-22T16:41:28.898Z,31.80
2022-11-22T16:44:10.097Z,31.20
2022-11-22T16:46:37.581Z,27.92
2022-11-22T16:49:21.726Z,32.60
2022-11-22T16:51:50.981Z,31.20
2022-11-22T16:54:21.114Z,32.00
2022-11-22T16:56:50.475Z,29.65
2022-11-22T16:59:18.042Z,33.88
2022-11-22T17:01:46.885Z,31.15
2022-11-22T17:04:26.381Z,27.15
2022-11-22T17:06:54.634Z,32.05
2022-11-22T17:09:22.328Z,32.03
2022-11-22T17:11:52.071Z,28.75
2022-11-22T17:14:20.038Z,30.08
2022-11-22T17:16:47.750Z,34.20
2022-11-22T17:19:45.549Z,33.95
2022-11-22T17:22:07.978Z,34.95
2022-11-22T17:24:36.325Z,35.67
2022-11-22T17:27:04.976Z,30.75
2022-11-22T17:29:49.796Z,34.05
2022-11-22T17:32:19.032Z,28.98
2022-11-22T17:34:46.949Z,34.42
2022-11-22T17:37:15.689Z,34.45
2022-11-22T17:39:43.957Z,35.65
2022-11-22T17:42:12.598Z,30.08
2022-11-22T17:44:40.675Z,31.05
2022-11-22T17:47:09.447Z,31.15
2022-11-22T17:49:37.469Z,31.50
2022-11-22T17:52:05.549Z,32.58
2022-11-22T17:54:33.397Z,31.67
2022-11-22T17:57:01.162Z,38.95
2022-11-22T17:59:29.393Z,35.60
2022-11-22T18:01:58.574Z,34.05
2022-11-22T18:04:27.168Z,31.80
2022-11-22T18:06:55.053Z,37.63
2022-11-22T18:09:24.729Z,35.40
2022-11-22T18:11:52.831Z,35.28
2022-11-22T18:14:20.921Z,35.45
2022-11-22T18:16:49.927Z,31.92
2022-11-22T18:19:18.062Z,35.75
2022-11-22T18:21:46.103Z,37.72
2022-11-22T18:24:13.888Z,36.42
2022-11-22T18:26:42.878Z,39.25
2022-11-22T18:32:02.396Z,33.88
2022-11-22T18:34:32.525Z,32.08
2022-11-22T18:37:03.803Z,31.67
2022-11-22T18:39:40.644Z,34.50
2022-11-22T18:42:15.773Z,39.55
2022-11-22T18:44:43.791Z,33.85
2022-11-22T18:47:11.529Z,31.50
2022-11-22T18:49:39.898Z,36.05
2022-11-22T18:52:13.330Z,37.67
2022-11-22T18:54:44.848Z,38.85
2022-11-22T18:57:12.814Z,35.38
2022-11-22T18:59:44.718Z,36.10
2022-11-22T19:02:13.196Z,37.50
2022-11-22T19:04:42.190Z,37.42
2022-11-22T19:07:12.032Z,36.95
2022-11-22T19:09:40.245Z,43.08
2022-11-22T19:12:11.766Z,44.53
2022-11-22T19:14:40.360Z,44.28
2022-11-22T19:17:11.138Z,35.03
2022-11-22T19:19:40.415Z,38.40
2022-11-22T19:22:10.773Z,33.15
2022-11-22T19:24:43.652Z,32.75
2022-11-22T19:27:16.575Z,39.63
2022-11-22T19:29:44.659Z,34.67
2022-11-22T19:32:13.165Z,38.45
2022-11-22T19:34:42.166Z,39.67
2022-11-22T19:37:12.253Z,44.17
2022-11-22T19:39:40.461Z,38.08
2022-11-22T19:42:11.779Z,37.88
2022-11-22T19:44:41.274Z,34.95
2022-11-22T19:47:09.673Z,35.72
2022-11-22T19:49:38.035Z,34.58
2022-11-22T19:52:07.172Z,33.70
2022-11-22T19:54:36.640Z,35.65
2022-11-22T19:57:05.554Z,32.80
2022-11-22T19:59:35.775Z,36.50
2022-11-22T20:02:03.501Z,35.67
2022-11-22T20:04:31.725Z,37.72
2022-11-22T20:07:01.748Z,39.95
2022-11-22T20:09:31.056Z,35.63
2022-11-22T20:12:01.944Z,35.40
2022-11-22T20:14:30.003Z,36.85
2022-11-22T20:16:59.745Z,38.17
2022-11-22T20:19:33.891Z,36.13
2022-11-22T20:22:02.733Z,35.22
2022-11-22T20:24:31.929Z,35.65
2022-11-22T20:27:00.434Z,32.72
2022-11-22T20:29:28.837Z,37.75
2022-11-22T20:31:57.466Z,38.38
2022-11-22T20:34:25.538Z,38.25
2022-11-22T20:36:56.632Z,40.95
2022-11-22T20:39:24.633Z,37.35
2022-11-22T20:42:11.686Z,33.38
2022-11-22T20:44:40.508Z,37.30
2022-11-22T20:47:10.141Z,39.30
2022-11-22T20:49:43.937Z,44.28
2022-11-22T20:52:15.374Z,36.20
2022-11-22T20:54:43.229Z,35.72
2022-11-22T20:57:11.429Z,36.33
2022-11-22T20:59:40.065Z,34.35
2022-11-22T21:02:10.952Z,35.47
2022-11-22T21:04:38.865Z,41.53
2022-11-22T21:07:06.306Z,33.17
2022-11-22T21:09:33.826Z,34.33
2022-11-22T21:12:01.684Z,42.15
2022-11-22T21:14:29.711Z,37.80
2022-11-22T21:16:57.914Z,36.25
2022-11-22T21:19:25.221Z,41.65
2022-11-22T21:21:52.756Z,40.85
2022-11-22T21:24:20.318Z,40.03
2022-11-22T21:26:47.618Z,34.45
2022-11-22T21:29:16.714Z,35.63
2022-11-22T21:31:44.156Z,43.05
2022-11-22T21:34:11.927Z,39.80
2022-11-22T21:36:38.994Z,43.05
2022-11-22T21:39:06.042Z,34.72
2022-11-22T21:41:41.254Z,39.90
2022-11-22T21:44:09.794Z,36.17
2022-11-22T21:46:37.068Z,37.65
2022-11-22T21:49:04.205Z,38.40
2022-11-22T21:51:32.197Z,37.75
2022-11-22T21:54:01.316Z,39.70
2022-11-22T21:56:29.145Z,39.65
2022-11-22T21:58:56.568Z,41.45
2022-11-22T22:01:24.539Z,39.05
2022-11-22T22:03:52.397Z,39.28
2022-11-22T22:06:20.205Z,40.13
2022-11-22T22:08:47.283Z,40.42
2022-11-22T22:11:14.717Z,43.23
2022-11-22T22:13:41.992Z,43.07
2022-11-22T22:16:18.881Z,41.08
2022-11-22T22:18:47.203Z,37.17
2022-11-22T22:21:15.799Z,39.75
2022-11-22T22:23:44.559Z,38.90
2022-11-22T22:26:15.490Z,44.78
2022-11-22T22:28:44.143Z,40.22
2022-11-22T22:31:21.682Z,42.60
2022-11-22T22:33:52.852Z,44.63
2022-11-22T22:36:20.722Z,47.40
2022-11-22T22:38:48.232Z,43.05
2022-11-22T22:41:16.241Z,44.97
2022-11-22T22:43:46.922Z,45.58
2022-11-22T22:46:23.194Z,42.03
2022-11-22T22:48:50.693Z,45.42
2022-11-22T22:51:21.640Z,41.33
2022-11-22T22:53:49.693Z,41.47
2022-11-22T22:56:19.951Z,42.65
2022-11-22T22:58:47.349Z,45.17
2022-11-22T23:01:20.711Z,47.38
2022-11-22T23:03:57.649Z,43.63
2022-11-22T23:06:27.993Z,45.88
2022-11-22T23:08:56.071Z,44.00
2022-11-22T23:11:49.175Z,41.35
2022-11-22T23:14:26.129Z,39.53
2022-11-22T23:16:57.605Z,45.58
2022-11-22T23:19:26.050Z,47.58
2022-11-22T23:21:53.562Z,44.80
2022-11-22T23:24:20.824Z,44.95
2022-11-22T23:26:48.186Z,45.90
2022-11-22T23:29:15.244Z,46.90
2022-11-22T23:31:42.412Z,43.60
2022-11-22T23:34:11.665Z,44.55
2022-11-22T23:36:40.887Z,46.83
2022-11-22T23:39:09.197Z,44.63
2022-11-22T23:41:36.382Z,45.25
2022-11-22T23:44:03.571Z,47.88
2022-11-22T23:46:30.826Z,41.72
2022-11-22T23:49:02.800Z,42.88
2022-11-22T23:51:32.196Z,46.78
2022-11-22T23:54:02.298Z,48.33
2022-11-22T23:56:32.607Z,45.65
2022-11-22T23:59:00.970Z,43.25
